Time;durP1;ratioP1;P1;durP2;ratioP2;P2;SDS_P1;SDS_P2;PMS_P1;PMS_P2;Temp;Humidity;BMP_temperature;BMP_pressure;BME280_temperature;BME280_humidity;BME280_pressure;Samples;Min_cycle;Max_cycle;Signal;HPM_P1;HPM_P2
2023/01/28 00:01:20;;;;;;;7.40;5.93;;;2.00;99.90;;;;;;6158895;23;20020;-83
2023/01/28 00:03:50;;;;;;;7.60;6.35;;;2.10;99.90;;;;;;6137826;23;20009;-84
2023/01/28 00:06:15;;;;;;;9.30;6.68;;;2.10;99.90;;;;;;6133738;23;20017;-85
2023/01/28 00:08:41;;;;;;;7.13;6.10;;;2.10;99.90;;;;;;6134046;23;20052;-83
2023/01/28 00:11:10;;;;;;;6.50;5.88;;;2.10;99.90;;;;;;6133736;23;20024;-85
2023/01/28 00:13:36;;;;;;;7.78;5.90;;;2.00;99.90;;;;;;6154754;23;20017;-83
2023/01/28 00:16:07;;;;;;;7.57;6.40;;;2.00;99.90;;;;;;6133131;23;20025;-85
2023/01/28 00:18:33;;;;;;;7.05;6.18;;;1.90;99.90;;;;;;6158272;23;20076;-84
2023/01/28 00:21:07;;;;;;;7.13;6.05;;;2.10;99.90;;;;;;6132462;23;20044;-85
2023/01/28 00:23:36;;;;;;;7.45;6.70;;;2.00;99.90;;;;;;6134338;23;20013;-82
2023/01/28 00:26:05;;;;;;;8.10;6.90;;;2.10;99.90;;;;;;6159440;23;20111;-85
2023/01/28 00:28:30;;;;;;;8.88;6.75;;;2.10;99.90;;;;;;6139006;23;20013;-82
2023/01/28 00:30:56;;;;;;;7.80;6.72;;;2.00;99.90;;;;;;6168896;23;20016;-82
2023/01/28 00:33:22;;;;;;;8.55;5.88;;;2.00;99.90;;;;;;6160012;23;20017;-85
2023/01/28 00:35:57;;;;;;;6.50;5.88;;;2.10;99.90;;;;;;6135252;23;20084;-84
2023/01/28 00:38:23;;;;;;;6.57;5.55;;;2.10;99.90;;;;;;6135192;23;20290;-84
2023/01/28 00:40:48;;;;;;;6.43;5.60;;;2.10;99.90;;;;;;6134656;23;20111;-83
2023/01/28 00:43:14;;;;;;;6.63;5.75;;;2.00;99.90;;;;;;6132569;23;20017;-83
2023/01/28 00:45:40;;;;;;;11.02;5.88;;;2.10;99.90;;;;;;6133531;23;20021;-83
2023/01/28 00:48:06;;;;;;;7.40;6.55;;;2.10;99.90;;;;;;6132228;23;20064;-83
2023/01/28 00:50:31;;;;;;;5.10;4.32;;;2.00;99.90;;;;;;6158153;23;20468;-84
2023/01/28 00:52:57;;;;;;;6.25;4.50;;;1.90;99.90;;;;;;6133296;23;20040;-86
2023/01/28 00:55:23;;;;;;;8.35;5.43;;;2.00;99.90;;;;;;6132595;23;20017;-83
2023/01/28 00:57:49;;;;;;;7.22;5.05;;;2.00;99.90;;;;;;6134526;23;20040;-82
2023/01/28 01:00:15;;;;;;;5.70;5.10;;;2.00;99.90;;;;;;6134541;23;20394;-84
2023/01/28 01:02:41;;;;;;;7.07;5.10;;;2.10;99.90;;;;;;6132561;23;20017;-82
2023/01/28 01:05:07;;;;;;;6.05;4.82;;;1.90;99.90;;;;;;6132854;23;20120;-82
2023/01/28 01:07:41;;;;;;;6.75;5.10;;;2.10;99.90;;;;;;6133995;23;20013;-82
2023/01/28 01:10:17;;;;;;;6.10;5.20;;;1.90;99.90;;;;;;6133166;23;20369;-83
2023/01/28 01:12:46;;;;;;;5.90;5.25;;;2.00;99.90;;;;;;6132039;23;20079;-82
2023/01/28 01:15:12;;;;;;;7.03;4.90;;;2.00;99.90;;;;;;6157416;23;20467;-84
2023/01/28 01:17:39;;;;;;;10.52;5.82;;;1.90;99.90;;;;;;6156920;23;20068;-83
2023/01/28 01:20:08;;;;;;;5.90;5.30;;;2.00;99.90;;;;;;6157202;23;20055;-82
2023/01/28 01:22:35;;;;;;;8.13;5.55;;;1.80;99.90;;;;;;6129729;23;20024;-84
2023/01/28 01:25:02;;;;;;;5.22;4.35;;;2.10;99.90;;;;;;6129091;23;20043;-84
2023/01/28 01:27:28;;;;;;;6.40;4.07;;;1.90;99.90;;;;;;6131975;23;20414;-83
2023/01/28 01:29:54;;;;;;;6.53;4.00;;;2.00;99.90;;;;;;6131976;23;20405;-84
2023/01/28 01:32:21;;;;;;;4.95;3.88;;;1.90;99.90;;;;;;6132602;23;20088;-83
2023/01/28 01:34:47;;;;;;;5.88;3.80;;;2.00;99.90;;;;;;6131875;23;20021;-83
2023/01/28 01:37:13;;;;;;;3.42;2.90;;;2.20;99.90;;;;;;6158301;23;20013;-83
2023/01/28 01:39:38;;;;;;;3.58;3.28;;;2.00;99.90;;;;;;6134743;23;20024;-83
2023/01/28 01:42:04;;;;;;;4.72;3.60;;;2.10;99.90;;;;;;6134956;23;20012;-82
2023/01/28 01:44:58;;;;;;;4.93;3.92;;;1.90;99.90;;;;;;6133869;23;20291;-82
2023/01/28 01:47:48;;;;;;;4.80;3.45;;;2.00;99.90;;;;;;6134143;23;20020;-82
2023/01/28 01:50:34;;;;;;;3.97;2.90;;;1.90;99.90;;;;;;6185214;23;20466;-84
2023/01/28 01:53:10;;;;;;;4.20;2.88;;;1.90;99.90;;;;;;6134626;23;20009;-82
2023/01/28 01:55:38;;;;;;;4.97;3.08;;;1.90;99.90;;;;;;6134862;23;20009;-84
2023/01/28 01:58:10;;;;;;;5.35;3.30;;;2.00;99.90;;;;;;6135803;23;20044;-81
2023/01/28 02:01:15;;;;;;;3.55;2.90;;;1.90;99.90;;;;;;6139771;23;20024;-84
2023/01/28 02:03:52;;;;;;;3.22;2.63;;;2.00;99.90;;;;;;6174296;23;20067;-84
2023/01/28 02:06:18;;;;;;;3.90;3.03;;;2.00;99.90;;;;;;6157947;23;20119;-84
2023/01/28 02:08:44;;;;;;;9.70;2.80;;;1.90;99.90;;;;;;6132277;23;20041;-84
2023/01/28 02:11:13;;;;;;;3.10;2.80;;;2.00;99.90;;;;;;6132726;23;20005;-83
2023/01/28 02:13:42;;;;;;;1.90;1.60;;;1.90;99.90;;;;;;6156557;23;20009;-84
2023/01/28 02:16:09;;;;;;;2.20;1.70;;;2.00;99.90;;;;;;6132452;23;20013;-82
2023/01/28 02:18:34;;;;;;;2.30;1.90;;;2.20;99.90;;;;;;6156454;23;20021;-84
2023/01/28 02:21:22;;;;;;;2.60;2.20;;;2.20;99.90;;;;;;6132378;23;20472;-83
2023/01/28 02:24:26;;;;;;;3.67;2.45;;;2.00;99.90;;;;;;6156184;23;20195;-84
2023/01/28 02:26:59;;;;;;;2.92;2.70;;;2.00;99.90;;;;;;6132695;23;20333;-84
2023/01/28 02:29:54;;;;;;;4.47;3.05;;;2.10;99.90;;;;;;6132118;23;20016;-83
2023/01/28 02:32:29;;;;;;;5.22;2.83;;;2.10;99.90;;;;;;6130982;23;20330;-83
2023/01/28 02:34:59;;;;;;;6.68;3.17;;;2.00;99.90;;;;;;6157290;23;20025;-83
2023/01/28 02:37:33;;;;;;;6.93;3.42;;;2.00;99.90;;;;;;6132173;23;20021;-85
2023/01/28 02:40:09;;;;;;;3.47;3.00;;;2.00;99.90;;;;;;6156817;23;20013;-82
2023/01/28 02:42:37;;;;;;;3.55;3.25;;;1.90;99.90;;;;;;6158245;23;20017;-83
2023/01/28 02:45:16;;;;;;;5.43;3.03;;;2.20;99.90;;;;;;6156225;23;20025;-84
2023/01/28 02:47:57;;;;;;;4.30;3.30;;;1.90;99.90;;;;;;6155904;23;20152;-86
2023/01/28 02:50:26;;;;;;;3.95;3.17;;;2.00;99.90;;;;;;6156023;23;20013;-85
2023/01/28 02:56:21;;;;;;;3.95;3.40;;;2.00;99.90;;;;;;6154602;23;20298;-82
2023/01/28 02:58:58;;;;;;;4.93;3.53;;;2.00;99.90;;;;;;6130148;23;20044;-84
2023/01/28 03:02:07;;;;;;;4.82;3.30;;;2.00;99.90;;;;;;6128198;23;20345;-85
2023/01/28 03:04:45;;;;;;;6.30;3.58;;;1.90;99.90;;;;;;6129101;23;20104;-83
2023/01/28 03:07:13;;;;;;;4.25;3.38;;;2.00;99.90;;;;;;6155423;23;20024;-85
2023/01/28 03:09:41;;;;;;;5.25;3.20;;;2.10;99.90;;;;;;6155786;23;20028;-85
2023/01/28 03:37:46;;;;;;;5.82;3.72;;;1.90;99.90;;;;;;6153091;23;19975;-82
2023/01/28 03:40:12;;;;;;;5.78;3.80;;;1.80;99.90;;;;;;6130522;23;20397;-84
2023/01/28 03:42:38;;;;;;;4.05;3.63;;;1.90;99.90;;;;;;6153982;23;20407;-85
2023/01/28 03:45:06;;;;;;;4.95;3.50;;;2.00;99.90;;;;;;6155082;23;20013;-82
2023/01/28 03:47:32;;;;;;;8.45;4.10;;;2.00;99.90;;;;;;6129536;23;20365;-83
2023/01/28 03:49:59;;;;;;;4.93;3.80;;;1.90;99.90;;;;;;6130788;23;20013;-83
2023/01/28 03:52:31;;;;;;;5.60;3.67;;;2.00;99.90;;;;;;6171652;23;20013;-82
2023/01/28 03:54:56;;;;;;;4.57;3.80;;;1.80;99.90;;;;;;6145524;23;20092;-83
2023/01/28 03:57:25;;;;;;;5.47;3.95;;;2.00;99.90;;;;;;6149355;23;20017;-82
2023/01/28 04:03:33;;;;;;;6.75;3.95;;;1.90;99.90;;;;;;6203531;23;20013;-80
2023/01/28 04:06:01;;;;;;;3.80;3.42;;;1.90;99.90;;;;;;6149625;23;20431;-80
2023/01/28 04:08:27;;;;;;;4.32;3.47;;;1.80;99.90;;;;;;6189664;23;20013;-84
2023/01/28 04:10:53;;;;;;;5.38;3.92;;;1.90;99.90;;;;;;6156628;23;20065;-82
2023/01/28 04:13:19;;;;;;;6.97;3.85;;;2.00;99.90;;;;;;6149704;23;20020;-84
2023/01/28 04:15:45;;;;;;;5.35;4.05;;;1.80;99.90;;;;;;6156939;23;20061;-83
2023/01/28 04:18:11;;;;;;;6.03;3.60;;;1.90;99.90;;;;;;6155372;23;20099;-83
2023/01/28 04:20:38;;;;;;;4.43;3.85;;;1.90;99.90;;;;;;6156695;23;20092;-85
2023/01/28 04:23:04;;;;;;;5.13;4.63;;;1.80;99.90;;;;;;6157561;23;20095;-84
2023/01/28 04:25:31;;;;;;;4.53;4.13;;;1.90;99.90;;;;;;6158763;23;20028;-82
2023/01/28 04:27:56;;;;;;;5.10;4.55;;;1.90;99.90;;;;;;6158183;23;20036;-83
2023/01/28 04:30:22;;;;;;;6.15;4.30;;;1.90;99.90;;;;;;6183336;23;20244;-83
2023/01/28 04:32:49;;;;;;;5.63;4.53;;;1.70;99.90;;;;;;6156957;23;20023;-84
2023/01/28 04:35:16;;;;;;;6.07;4.50;;;1.80;99.90;;;;;;6157897;23;20019;-83
2023/01/28 04:37:42;;;;;;;6.15;4.93;;;1.70;99.90;;;;;;6157898;23;20017;-82
2023/01/28 04:40:09;;;;;;;5.72;4.82;;;1.60;99.90;;;;;;6157218;23;20013;-83
2023/01/28 04:42:34;;;;;;;6.63;4.68;;;1.80;99.90;;;;;;6133773;23;20464;-83
2023/01/28 04:45:00;;;;;;;6.32;4.85;;;1.80;99.90;;;;;;6157844;23;20051;-84
2023/01/28 04:47:26;;;;;;;6.28;5.25;;;1.90;99.90;;;;;;6157844;23;20009;-83
2023/01/28 04:49:51;;;;;;;5.78;4.82;;;1.60;99.90;;;;;;6132971;23;20138;-83
2023/01/28 04:52:17;;;;;;;5.88;4.88;;;1.80;99.90;;;;;;6158123;23;20036;-85
2023/01/28 04:54:43;;;;;;;5.97;5.07;;;1.60;99.90;;;;;;6157250;23;20059;-83
2023/01/28 04:57:08;;;;;;;6.03;5.18;;;1.60;99.90;;;;;;6157451;23;20337;-83
2023/01/28 04:59:34;;;;;;;9.18;5.20;;;1.80;99.90;;;;;;6132481;23;20013;-85
2023/01/28 05:02:00;;;;;;;5.70;5.20;;;1.80;99.90;;;;;;6157976;23;20055;-82
2023/01/28 05:04:25;;;;;;;7.15;5.60;;;1.60;99.90;;;;;;6157284;23;20527;-83
2023/01/28 05:06:51;;;;;;;9.40;6.57;;;1.70;99.90;;;;;;6157608;23;20013;-83
2023/01/28 05:09:17;;;;;;;6.70;5.68;;;1.80;99.90;;;;;;6157131;23;20066;-82
2023/01/28 05:11:43;;;;;;;6.95;5.60;;;1.60;99.90;;;;;;6157516;23;20040;-82
2023/01/28 05:14:08;;;;;;;8.38;5.85;;;1.70;99.90;;;;;;6157887;23;20024;-83
2023/01/28 05:16:34;;;;;;;7.07;5.57;;;1.60;99.90;;;;;;6157777;23;20657;-82
2023/01/28 05:19:01;;;;;;;6.80;5.78;;;1.60;99.90;;;;;;6157446;23;20027;-85
2023/01/28 05:21:27;;;;;;;6.05;5.20;;;1.70;99.90;;;;;;6132801;23;20079;-83
2023/01/28 05:23:53;;;;;;;6.38;5.68;;;1.50;99.90;;;;;;6132084;23;20013;-82
2023/01/28 05:26:19;;;;;;;5.95;5.35;;;1.60;99.90;;;;;;6132523;23;20044;-82
2023/01/28 05:28:45;;;;;;;8.48;5.32;;;1.70;99.90;;;;;;6132321;23;20017;-85
2023/01/28 05:31:11;;;;;;;9.73;5.82;;;1.50;99.90;;;;;;6132490;23;20329;-82
2023/01/28 05:33:37;;;;;;;7.40;5.60;;;1.60;99.90;;;;;;6155879;23;20092;-82
2023/01/28 05:36:03;;;;;;;8.40;6.05;;;1.70;99.90;;;;;;6156957;23;20127;-82
2023/01/28 05:38:29;;;;;;;5.93;5.18;;;1.60;99.90;;;;;;6134214;23;20017;-85
2023/01/28 05:40:54;;;;;;;8.15;5.70;;;1.60;99.90;;;;;;6159644;23;20019;-84
2023/01/28 05:43:20;;;;;;;7.28;5.45;;;1.60;99.90;;;;;;6134410;23;20016;-83
2023/01/28 05:49:27;;;;;;;8.73;5.63;;;1.70;99.90;;;;;;6188870;23;20318;-85
2023/01/28 05:51:53;;;;;;;7.22;5.95;;;1.70;99.90;;;;;;6142502;23;20017;-82
2023/01/28 05:54:19;;;;;;;6.28;5.68;;;1.50;99.90;;;;;;6152069;23;20587;-83
2023/01/28 05:56:46;;;;;;;10.18;6.95;;;1.70;99.90;;;;;;6134305;23;20077;-82
2023/01/28 05:59:12;;;;;;;13.00;7.28;;;1.50;99.90;;;;;;6158667;23;20039;-83
2023/01/28 06:01:38;;;;;;;7.75;6.95;;;1.50;99.90;;;;;;6133884;23;20524;-82
2023/01/28 06:04:04;;;;;;;8.35;7.00;;;1.60;99.90;;;;;;6183146;23;20020;-83
2023/01/28 06:06:29;;;;;;;8.23;7.43;;;1.50;99.90;;;;;;6158568;23;20035;-85
2023/01/28 06:08:55;;;;;;;9.23;8.23;;;1.70;99.90;;;;;;6158557;23;20009;-84
2023/01/28 06:11:21;;;;;;;9.52;8.10;;;1.60;99.90;;;;;;6186912;23;20337;-83
2023/01/28 06:13:47;;;;;;;9.73;8.40;;;1.60;99.90;;;;;;6185458;23;20401;-81
2023/01/28 06:16:12;;;;;;;9.93;8.23;;;1.60;99.90;;;;;;6189916;23;20454;-84
2023/01/28 06:18:40;;;;;;;9.82;8.32;;;1.60;99.90;;;;;;6197519;23;20131;-81
2023/01/28 06:21:06;;;;;;;10.23;8.85;;;1.60;99.90;;;;;;6169256;23;20016;-82
2023/01/28 06:23:32;;;;;;;10.57;8.77;;;1.60;99.90;;;;;;6167739;23;20012;-83
2023/01/28 06:25:57;;;;;;;10.73;8.90;;;1.70;99.90;;;;;;6160316;23;20039;-85
2023/01/28 06:28:24;;;;;;;13.35;8.45;;;1.70;99.90;;;;;;6162319;23;20364;-83
2023/01/28 06:30:51;;;;;;;11.63;8.85;;;1.50;99.90;;;;;;6187570;23;20040;-85
2023/01/28 06:33:19;;;;;;;10.75;8.80;;;1.70;99.90;;;;;;6186536;23;20600;-84
2023/01/28 06:35:45;;;;;;;12.60;9.48;;;1.70;99.90;;;;;;6187131;23;20013;-84
2023/01/28 06:38:11;;;;;;;10.98;9.05;;;1.80;99.90;;;;;;6187115;23;20048;-83
2023/01/28 06:40:37;;;;;;;11.70;8.73;;;1.50;99.90;;;;;;6162522;23;20076;-82
2023/01/28 06:43:04;;;;;;;12.30;8.70;;;1.60;99.90;;;;;;6168713;23;20017;-82
2023/01/28 06:45:31;;;;;;;10.02;8.88;;;1.50;99.90;;;;;;6159156;23;20055;-82
2023/01/28 06:47:56;;;;;;;10.60;9.35;;;1.40;99.90;;;;;;6159353;23;20070;-84
2023/01/28 06:50:23;;;;;;;9.10;8.05;;;1.70;99.90;;;;;;6160089;23;20009;-84
2023/01/28 06:52:51;;;;;;;11.05;9.13;;;1.50;99.90;;;;;;6159282;23;20023;-85
2023/01/28 06:55:17;;;;;;;12.32;8.85;;;1.50;99.90;;;;;;6186487;23;20720;-82
2023/01/28 06:57:44;;;;;;;10.40;9.00;;;1.50;99.90;;;;;;6187888;23;20020;-83
2023/01/28 07:00:11;;;;;;;10.25;8.90;;;1.50;99.90;;;;;;6165765;23;20035;-84
2023/01/28 07:02:37;;;;;;;11.65;8.57;;;1.40;99.90;;;;;;6188630;23;20017;-83
2023/01/28 07:05:04;;;;;;;10.10;8.18;;;1.50;99.90;;;;;;6189417;23;20096;-83
2023/01/28 07:07:30;;;;;;;8.75;7.80;;;1.40;99.90;;;;;;6189381;23;20063;-83
2023/01/28 07:09:55;;;;;;;9.07;8.05;;;1.50;99.90;;;;;;6162705;23;20016;-84
2023/01/28 07:12:21;;;;;;;10.15;8.48;;;1.30;99.90;;;;;;6159311;23;20017;-85
2023/01/28 07:14:47;;;;;;;10.98;8.45;;;1.40;99.90;;;;;;6160872;23;20024;-85
2023/01/28 07:17:13;;;;;;;9.55;8.25;;;1.50;99.90;;;;;;6162030;23;20016;-83
2023/01/28 07:19:39;;;;;;;11.38;8.27;;;1.20;99.90;;;;;;6161592;23;20417;-84
2023/01/28 07:22:04;;;;;;;9.73;8.07;;;1.30;99.90;;;;;;6161894;23;20028;-83
2023/01/28 07:24:30;;;;;;;10.20;8.40;;;1.30;99.90;;;;;;6162218;23;20016;-83
2023/01/28 07:26:56;;;;;;;11.30;8.40;;;1.10;99.90;;;;;;6164534;23;20013;-84
2023/01/28 07:29:22;;;;;;;12.13;8.18;;;1.20;99.90;;;;;;6164615;23;20009;-84
2023/01/28 07:31:48;;;;;;;11.75;8.23;;;1.00;99.90;;;;;;6163615;23;20539;-83
2023/01/28 07:34:13;;;;;;;9.40;8.27;;;0.80;99.90;;;;;;6163098;23;20436;-83
2023/01/28 07:36:40;;;;;;;10.50;8.23;;;0.80;99.90;;;;;;6164484;23;20017;-84
2023/01/28 07:39:08;;;;;;;9.70;8.10;;;0.70;99.90;;;;;;6187385;23;20040;-83
2023/01/28 07:41:34;;;;;;;12.85;8.45;;;0.90;99.90;;;;;;6163782;23;20023;-81
2023/01/28 07:44:00;;;;;;;11.32;8.30;;;0.70;99.90;;;;;;6188255;23;20016;-84
2023/01/28 07:46:31;;;;;;;10.60;8.55;;;0.90;99.90;;;;;;6164075;23;20024;-82
2023/01/28 07:48:57;;;;;;;9.25;7.82;;;0.80;99.90;;;;;;6160480;23;20103;-83
2023/01/28 07:51:26;;;;;;;11.90;8.25;;;0.90;99.90;;;;;;6159468;23;20129;-84
2023/01/28 07:53:52;;;;;;;12.30;8.57;;;0.50;99.90;;;;;;6184009;23;20444;-82
2023/01/28 07:56:17;;;;;;;8.90;8.00;;;0.60;99.90;;;;;;6159817;23;20020;-82
2023/01/28 07:58:46;;;;;;;10.32;8.15;;;0.70;99.90;;;;;;6184399;23;20212;-83
2023/01/28 08:01:14;;;;;;;10.40;8.00;;;0.50;99.90;;;;;;6160138;23;20096;-82
2023/01/28 08:03:40;;;;;;;11.88;8.00;;;0.80;99.90;;;;;;6158044;23;20224;-84
2023/01/28 08:06:06;;;;;;;9.10;7.57;;;0.70;99.90;;;;;;6159737;23;20019;-83
2023/01/28 08:08:32;;;;;;;9.73;7.45;;;0.70;99.90;;;;;;6158383;23;20015;-84
2023/01/28 08:10:58;;;;;;;11.45;8.10;;;0.90;99.90;;;;;;6159628;23;20027;-84
2023/01/28 08:13:26;;;;;;;10.82;7.93;;;0.70;99.90;;;;;;6183519;23;20166;-83
2023/01/28 08:15:55;;;;;;;9.80;8.35;;;0.80;99.90;;;;;;6184739;23;20019;-83
2023/01/28 08:18:24;;;;;;;10.95;8.43;;;1.20;99.90;;;;;;6157039;23;20067;-84
2023/01/28 08:20:54;;;;;;;11.65;7.80;;;0.90;99.90;;;;;;6160140;23;20038;-84
2023/01/28 08:23:25;;;;;;;10.88;7.72;;;1.30;99.90;;;;;;6182938;23;20448;-82
2023/01/28 08:25:52;;;;;;;8.52;7.63;;;1.10;99.90;;;;;;6161260;23;20135;-82
2023/01/28 08:28:21;;;;;;;9.80;7.60;;;1.30;99.90;;;;;;6160253;23;20487;-82
2023/01/28 08:30:47;;;;;;;8.90;7.32;;;1.50;99.90;;;;;;6183081;23;20013;-84
2023/01/28 08:33:18;;;;;;;10.13;7.72;;;1.50;99.90;;;;;;6158161;23;20043;-84
2023/01/28 08:35:47;;;;;;;7.95;7.10;;;1.40;99.90;;;;;;6158855;23;20017;-82
2023/01/28 08:38:16;;;;;;;9.45;7.32;;;1.60;99.90;;;;;;6159713;23;20023;-83
2023/01/28 08:40:44;;;;;;;9.23;8.00;;;1.50;99.90;;;;;;6184811;23;20052;-83
2023/01/28 08:43:10;;;;;;;9.15;7.80;;;1.30;99.90;;;;;;6184924;23;20028;-86
2023/01/28 08:45:49;;;;;;;9.48;7.68;;;1.40;99.90;;;;;;6161063;23;20025;-85
2023/01/28 08:48:18;;;;;;;10.82;7.68;;;1.30;99.90;;;;;;6183685;23;20657;-84
2023/01/28 08:50:44;;;;;;;9.98;7.15;;;1.20;99.90;;;;;;6160692;23;20017;-84
2023/01/28 08:53:12;;;;;;;10.20;7.72;;;1.20;99.90;;;;;;6159767;23;20008;-82
2023/01/28 08:55:38;;;;;;;9.18;7.63;;;1.40;99.90;;;;;;6158648;23;20105;-82
2023/01/28 08:58:06;;;;;;;9.90;7.60;;;1.30;99.90;;;;;;6157972;23;20416;-84
2023/01/28 09:00:33;;;;;;;11.43;8.18;;;1.50;99.90;;;;;;6160372;23;20027;-86
2023/01/28 09:02:59;;;;;;;9.13;7.32;;;1.30;99.90;;;;;;6158136;23;20019;-84
2023/01/28 09:05:24;;;;;;;9.60;7.32;;;1.50;99.90;;;;;;6157558;23;20095;-83
2023/01/28 09:07:50;;;;;;;10.10;7.82;;;1.40;99.90;;;;;;6159614;23;20880;-83
2023/01/28 09:10:19;;;;;;;8.57;7.50;;;1.50;99.90;;;;;;6159768;23;20008;-83
2023/01/28 09:12:45;;;;;;;9.75;7.88;;;1.50;99.90;;;;;;6155161;23;20020;-84
2023/01/28 09:15:12;;;;;;;12.45;8.00;;;1.40;99.90;;;;;;6154677;23;20108;-81
2023/01/28 09:18:28;;;;;;;7.70;6.90;;;1.50;99.90;;;;;;6135467;23;20436;-83
2023/01/28 09:20:54;;;;;;;9.93;7.40;;;1.70;99.90;;;;;;6138024;23;20017;-82
2023/01/28 09:23:20;;;;;;;7.82;7.03;;;1.60;99.90;;;;;;6160658;23;20309;-82
2023/01/28 09:25:46;;;;;;;7.82;7.05;;;1.80;99.90;;;;;;6134551;23;20092;-85
2023/01/28 09:28:11;;;;;;;11.70;7.55;;;1.80;99.90;;;;;;6135334;23;20013;-83
2023/01/28 09:30:38;;;;;;;7.90;6.50;;;2.00;99.90;;;;;;6135404;23;20365;-82
2023/01/28 09:33:05;;;;;;;6.45;5.85;;;2.10;99.90;;;;;;6158146;23;20017;-82
2023/01/28 09:35:32;;;;;;;8.60;7.00;;;2.30;99.90;;;;;;6136802;23;20018;-83
2023/01/28 09:38:01;;;;;;;8.25;6.53;;;2.30;99.90;;;;;;6160837;23;20135;-83
2023/01/28 09:40:41;;;;;;;9.30;6.15;;;2.50;99.90;;;;;;6145189;23;20087;-81
2023/01/28 09:44:05;;;;;;;8.07;6.00;;;2.50;99.90;;;;;;6177514;23;20017;-81
2023/01/28 09:48:05;;;;;;;6.65;5.70;;;2.60;99.90;;;;;;6077923;23;20059;-84
2023/01/28 09:50:58;;;;;;;7.22;6.25;;;2.70;99.90;;;;;;6045294;23;20045;-83
2023/01/28 10:04:55;;;;;;;7.95;6.18;;;3.10;99.90;;;;;;5950921;24;20015;-83
2023/01/28 10:07:44;;;;;;;7.38;5.88;;;3.30;99.90;;;;;;5929700;24;20366;-87
2023/01/28 10:10:26;;;;;;;6.82;5.78;;;3.30;99.90;;;;;;5927514;24;20130;-84
2023/01/28 10:25:00;;;;;;;;;;;;;;;;;;;;;
2023/01/28 10:27:47;;;;;;;7.20;5.68;;;3.90;99.90;;;;;;5976876;23;20144;-82
2023/01/28 10:30:25;;;;;;;6.75;5.70;;;4.10;99.90;;;;;;5952632;24;20020;-87
2023/01/28 10:33:03;;;;;;;9.85;5.57;;;4.00;99.90;;;;;;5953247;24;20016;-88
2023/01/28 10:35:37;;;;;;;7.45;5.43;;;4.20;99.90;;;;;;6012640;23;20026;-83
2023/01/28 10:38:07;;;;;;;11.40;5.80;;;4.30;99.90;;;;;;6067057;23;20342;-81
2023/01/28 10:40:34;;;;;;;10.20;6.05;;;4.30;99.90;;;;;;6066151;23;20093;-85
2023/01/28 11:26:57;;;;;;;8.77;6.50;;;4.50;99.90;;;;;;5078777;22;28645512;-85
2023/01/28 11:29:37;;;;;;;9.20;6.57;;;4.60;99.90;;;;;;6260822;22;20011;-84
2023/01/28 11:32:19;;;;;;;8.35;6.43;;;4.60;99.90;;;;;;6285758;22;20009;-84
2023/01/28 11:34:50;;;;;;;10.23;6.65;;;4.60;99.90;;;;;;6291009;22;20011;-84
2023/01/28 11:41:57;;;;;;;9.43;6.50;;;4.60;99.90;;;;;;6193371;23;20013;-87
2023/01/28 11:56:33;;;;;;;;;;;;;;;;;;;;;
2023/01/28 13:02:42;;;;;;;8.93;6.93;;;4.70;99.90;;;;;;6318832;22;20469;-84
2023/01/28 13:05:17;;;;;;;9.38;7.28;;;4.70;99.90;;;;;;6302997;22;20011;-83
2023/01/28 13:08:07;;;;;;;9.88;7.55;;;4.80;99.90;;;;;;6300752;22;20117;-81
2023/01/28 13:10:40;;;;;;;10.88;7.18;;;5.00;99.90;;;;;;6290316;22;20534;-81
2023/01/28 13:13:35;;;;;;;13.00;7.40;;;5.10;99.90;;;;;;6311902;22;20019;-82
2023/01/28 13:16:10;;;;;;;14.55;7.30;;;5.30;99.90;;;;;;6310681;22;20018;-81
2023/01/28 13:21:42;;;;;;;13.13;6.87;;;5.40;99.90;;;;;;6308256;22;19922;-82
2023/01/28 13:24:13;;;;;;;11.98;7.25;;;5.60;99.90;;;;;;6279623;22;20075;-82
2023/01/28 13:27:20;;;;;;;9.43;6.63;;;5.50;99.90;;;;;;6280650;22;20115;-81
2023/01/28 13:30:26;;;;;;;9.20;7.03;;;5.50;99.90;;;;;;6262515;22;20072;-80
2023/01/28 13:33:08;;;;;;;11.02;6.60;;;5.40;99.90;;;;;;6303984;22;20068;-80
2023/01/28 13:35:54;;;;;;;8.18;6.45;;;5.30;99.90;;;;;;6282939;22;20057;-81
2023/01/28 13:38:21;;;;;;;15.25;9.43;;;5.30;99.90;;;;;;6279398;22;20011;-80
2023/01/28 13:41:05;;;;;;;8.93;6.93;;;5.30;99.90;;;;;;6280298;22;20507;-81
2023/01/28 13:43:36;;;;;;;9.43;6.82;;;5.20;99.90;;;;;;6282186;22;20063;-82
2023/01/28 13:46:06;;;;;;;8.15;6.18;;;5.20;99.90;;;;;;6281710;22;20090;-81
2023/01/28 13:48:56;;;;;;;11.60;6.80;;;5.30;99.90;;;;;;6283218;22;20358;-81
2023/01/28 13:51:26;;;;;;;8.18;5.80;;;5.20;99.90;;;;;;6282156;22;20010;-81
2023/01/28 13:54:19;;;;;;;10.27;6.22;;;5.30;99.90;;;;;;6302537;22;20007;-79
2023/01/28 13:57:01;;;;;;;8.80;6.50;;;5.30;99.90;;;;;;6302803;22;20140;-79
2023/01/28 13:59:33;;;;;;;11.23;6.82;;;5.40;99.90;;;;;;6306627;22;20124;-79
2023/01/28 14:02:01;;;;;;;11.23;6.40;;;5.20;99.90;;;;;;6278609;22;20118;-79
2023/01/28 14:04:49;;;;;;;8.27;6.32;;;5.20;99.90;;;;;;6279983;22;20423;-78
2023/01/28 14:07:23;;;;;;;11.75;6.40;;;5.20;99.90;;;;;;6282616;22;20135;-80
2023/01/28 14:10:18;;;;;;;11.27;6.30;;;5.20;99.90;;;;;;6280049;22;20307;-81
2023/01/28 14:12:53;;;;;;;8.65;6.10;;;5.20;99.90;;;;;;6305683;22;20155;-79
2023/01/28 14:15:24;;;;;;;8.40;6.40;;;5.10;99.90;;;;;;6282769;22;20474;-80
2023/01/28 14:18:18;;;;;;;8.95;6.10;;;5.10;99.90;;;;;;6279616;22;20109;-80
2023/01/28 14:20:45;;;;;;;8.82;6.28;;;5.10;99.90;;;;;;6279914;22;20287;-84
2023/01/28 14:23:21;;;;;;;9.65;5.65;;;5.10;99.90;;;;;;6307776;22;20435;-82
2023/01/28 14:26:02;;;;;;;8.15;6.05;;;5.00;99.90;;;;;;6281134;22;20110;-81
2023/01/28 14:29:01;;;;;;;10.55;5.82;;;5.00;99.90;;;;;;6303973;22;20006;-83
2023/01/28 14:31:30;;;;;;;7.75;5.85;;;5.00;99.90;;;;;;6303299;22;20379;-81
2023/01/28 14:34:22;;;;;;;10.40;6.45;;;5.00;99.90;;;;;;6279910;22;20018;-82
2023/01/28 14:36:49;;;;;;;10.18;7.13;;;5.00;99.90;;;;;;6279814;22;20101;-81
2023/01/28 14:39:22;;;;;;;8.73;4.60;;;5.10;99.90;;;;;;6305097;22;20011;-80
2023/01/28 14:41:52;;;;;;;7.22;5.97;;;5.10;99.90;;;;;;6277300;22;20094;-81
2023/01/28 14:44:39;;;;;;;10.98;6.50;;;5.00;99.90;;;;;;6303878;22;20577;-81
2023/01/28 14:47:42;;;;;;;11.85;7.05;;;4.90;99.90;;;;;;6275835;22;20050;-81
2023/01/28 14:50:25;;;;;;;9.10;6.55;;;5.00;99.90;;;;;;6278716;22;20021;-83
2023/01/28 14:53:10;;;;;;;12.82;7.07;;;4.80;99.90;;;;;;6278704;22;20126;-81
2023/01/28 14:55:35;;;;;;;10.40;7.47;;;4.90;99.90;;;;;;6307613;22;20015;-82
2023/01/28 14:58:29;;;;;;;11.77;7.68;;;4.90;99.90;;;;;;6281578;22;20019;-84
2023/01/28 15:00:58;;;;;;;12.30;7.70;;;4.90;99.90;;;;;;6129664;23;20013;-81
2023/01/28 15:03:24;;;;;;;11.68;7.05;;;5.00;99.90;;;;;;6153185;23;20036;-80
2023/01/28 15:06:14;;;;;;;10.45;7.68;;;4.80;99.90;;;;;;6152897;23;20936;-83
2023/01/28 15:08:40;;;;;;;10.20;7.60;;;4.80;99.90;;;;;;6154917;23;20057;-81
2023/01/28 15:11:09;;;;;;;18.08;8.65;;;4.90;99.90;;;;;;6128964;23;20013;-81
2023/01/28 15:13:41;;;;;;;10.68;7.47;;;4.60;99.90;;;;;;6129550;23;20092;-81
2023/01/28 15:16:13;;;;;;;11.65;7.40;;;4.80;99.90;;;;;;6154795;23;20104;-81
2023/01/28 15:18:42;;;;;;;15.45;7.65;;;4.80;99.90;;;;;;6153221;23;20373;-83
2023/01/28 15:21:09;;;;;;;9.77;7.28;;;4.80;99.90;;;;;;6151580;23;20111;-81
2023/01/28 15:23:37;;;;;;;14.13;7.50;;;4.60;99.90;;;;;;6152256;23;20032;-80
2023/01/28 15:26:30;;;;;;;11.75;7.38;;;4.70;99.90;;;;;;6152350;23;20445;-80
2023/01/28 15:28:56;;;;;;;14.48;7.32;;;4.60;99.90;;;;;;6058635;23;20090;-80
2023/01/28 15:31:33;;;;;;;11.85;6.80;;;4.40;99.90;;;;;;6035210;23;20046;-81
2023/01/28 15:34:17;;;;;;;14.18;6.82;;;4.50;99.90;;;;;;6009143;23;20118;-79
2023/01/28 15:36:43;;;;;;;11.20;7.32;;;4.40;99.90;;;;;;6034891;23;20336;-82
2023/01/28 15:39:18;;;;;;;12.75;7.30;;;4.50;99.90;;;;;;6176271;23;20016;-78
2023/01/28 15:41:56;;;;;;;10.80;6.88;;;4.40;99.90;;;;;;6181659;23;20009;-77
2023/01/28 15:44:33;;;;;;;12.85;7.22;;;4.40;99.90;;;;;;6183413;23;20041;-80
2023/01/28 15:47:01;;;;;;;10.07;6.65;;;4.30;99.90;;;;;;6182218;23;20091;-85
2023/01/28 15:49:31;;;;;;;11.15;7.03;;;4.50;99.90;;;;;;6182273;23;20020;-82
2023/01/28 15:51:57;;;;;;;11.75;6.50;;;4.40;99.90;;;;;;6158042;23;20108;-79
2023/01/28 15:54:24;;;;;;;10.82;7.43;;;4.20;99.90;;;;;;6182333;23;20013;-80
2023/01/28 15:56:50;;;;;;;16.27;7.18;;;4.40;99.90;;;;;;6157186;23;20076;-82
2023/01/28 15:59:25;;;;;;;10.23;7.35;;;4.20;99.90;;;;;;6183043;23;20123;-81
2023/01/28 16:02:19;;;;;;;12.02;7.22;;;4.30;99.90;;;;;;6205570;23;20016;-82
2023/01/28 16:05:27;;;;;;;10.05;7.53;;;4.10;99.90;;;;;;6162143;22;20298;-80
2023/01/28 16:07:55;;;;;;;10.23;7.40;;;4.20;99.90;;;;;;6151856;23;20020;-81
2023/01/28 16:10:24;;;;;;;11.85;7.85;;;4.20;99.90;;;;;;6151230;23;20100;-84
2023/01/28 16:13:18;;;;;;;12.13;7.38;;;4.00;99.90;;;;;;6153028;23;20021;-82
2023/01/28 16:15:51;;;;;;;13.77;8.50;;;4.00;99.90;;;;;;6153001;23;20013;-81
2023/01/28 16:18:42;;;;;;;10.35;8.00;;;3.90;99.90;;;;;;6154090;23;20092;-81
2023/01/28 16:21:11;;;;;;;17.05;8.85;;;4.00;99.90;;;;;;6061374;23;20022;-81
2023/01/28 16:23:38;;;;;;;11.25;8.00;;;3.90;99.90;;;;;;6016518;23;20434;-81
2023/01/28 16:26:18;;;;;;;11.52;7.70;;;3.90;99.90;;;;;;6065115;23;20023;-82